sensor_id;sensor_type;location;lat;lon;timestamp;P1;durP1;ratioP1;P2;durP2;ratioP2
58756;SDS011;44527;47.460;19.016;2022-09-23T00:02:10;10.27;;;5.30;;
58756;SDS011;44527;47.460;19.016;2022-09-23T00:05:13;11.70;;;6.15;;
58756;SDS011;44527;47.460;19.016;2022-09-23T00:08:16;9.15;;;5.37;;
58756;SDS011;44527;47.460;19.016;2022-09-23T00:11:20;12.30;;;5.45;;
58756;SDS011;44527;47.460;19.016;2022-09-23T00:14:24;8.90;;;5.10;;
58756;SDS011;44527;47.460;19.016;2022-09-23T00:17:27;11.52;;;5.65;;
58756;SDS011;44527;47.460;19.016;2022-09-23T00:20:29;15.45;;;5.87;;
58756;SDS011;44527;47.460;19.016;2022-09-23T00:23:34;10.27;;;5.18;;
58756;SDS011;44527;47.460;19.016;2022-09-23T00:26:37;11.27;;;5.43;;
58756;SDS011;44527;47.460;19.016;2022-09-23T00:29:40;12.20;;;5.80;;
58756;SDS011;44527;47.460;19.016;2022-09-23T00:32:42;10.75;;;5.32;;
58756;SDS011;44527;47.460;19.016;2022-09-23T00:35:44;8.20;;;4.78;;
58756;SDS011;44527;47.460;19.016;2022-09-23T00:38:46;12.43;;;4.82;;
58756;SDS011;44527;47.460;19.016;2022-09-23T00:41:49;10.48;;;4.72;;
58756;SDS011;44527;47.460;19.016;2022-09-23T00:44:53;8.23;;;4.55;;
58756;SDS011;44527;47.460;19.016;2022-09-23T00:47:58;11.43;;;5.43;;
58756;SDS011;44527;47.460;19.016;2022-09-23T00:51:03;10.00;;;5.15;;
58756;SDS011;44527;47.460;19.016;2022-09-23T00:54:10;11.32;;;5.18;;
58756;SDS011;44527;47.460;19.016;2022-09-23T00:57:13;8.13;;;4.70;;
58756;SDS011;44527;47.460;19.016;2022-09-23T01:00:19;10.00;;;4.95;;
58756;SDS011;44527;47.460;19.016;2022-09-23T01:03:21;8.75;;;4.80;;
58756;SDS011;44527;47.460;19.016;2022-09-23T01:06:24;10.32;;;4.70;;
58756;SDS011;44527;47.460;19.016;2022-09-23T01:09:27;8.50;;;4.28;;
58756;SDS011;44527;47.460;19.016;2022-09-23T01:12:46;8.55;;;4.40;;
58756;SDS011;44527;47.460;19.016;2022-09-23T01:15:59;10.02;;;4.72;;
58756;SDS011;44527;47.460;19.016;2022-09-23T01:19:43;12.55;;;4.43;;
58756;SDS011;44527;47.460;19.016;2022-09-23T01:33:01;7.30;;;4.20;;
58756;SDS011;44527;47.460;19.016;2022-09-23T01:36:26;7.35;;;3.70;;
58756;SDS011;44527;47.460;19.016;2022-09-23T01:43:12;6.80;;;3.75;;
58756;SDS011;44527;47.460;19.016;2022-09-23T01:46:25;7.50;;;3.62;;
58756;SDS011;44527;47.460;19.016;2022-09-23T01:52:44;13.57;;;4.28;;
58756;SDS011;44527;47.460;19.016;2022-09-23T01:55:52;8.05;;;4.20;;
58756;SDS011;44527;47.460;19.016;2022-09-23T01:59:01;7.75;;;3.80;;
58756;SDS011;44527;47.460;19.016;2022-09-23T02:02:12;7.72;;;3.87;;
58756;SDS011;44527;47.460;19.016;2022-09-23T02:05:31;7.53;;;4.25;;
58756;SDS011;44527;47.460;19.016;2022-09-23T02:08:55;13.48;;;4.55;;
58756;SDS011;44527;47.460;19.016;2022-09-23T02:12:03;7.57;;;4.03;;
58756;SDS011;44527;47.460;19.016;2022-09-23T02:15:10;7.00;;;4.40;;
58756;SDS011;44527;47.460;19.016;2022-09-23T02:18:27;14.52;;;4.53;;
58756;SDS011;44527;47.460;19.016;2022-09-23T02:21:34;7.43;;;4.20;;
58756;SDS011;44527;47.460;19.016;2022-09-23T02:24:41;6.28;;;3.97;;
58756;SDS011;44527;47.460;19.016;2022-09-23T02:27:50;6.57;;;3.67;;
58756;SDS011;44527;47.460;19.016;2022-09-23T02:31:06;8.43;;;4.25;;
58756;SDS011;44527;47.460;19.016;2022-09-23T02:34:29;14.70;;;5.62;;
58756;SDS011;44527;47.460;19.016;2022-09-23T02:37:48;9.20;;;4.15;;
58756;SDS011;44527;47.460;19.016;2022-09-23T02:44:18;12.05;;;4.12;;
58756;SDS011;44527;47.460;19.016;2022-09-23T02:47:21;8.65;;;3.65;;
58756;SDS011;44527;47.460;19.016;2022-09-23T02:50:28;8.30;;;3.90;;
58756;SDS011;44527;47.460;19.016;2022-09-23T02:53:32;7.25;;;3.72;;
58756;SDS011;44527;47.460;19.016;2022-09-23T02:56:35;8.98;;;4.45;;
58756;SDS011;44527;47.460;19.016;2022-09-23T02:59:38;8.55;;;4.55;;
58756;SDS011;44527;47.460;19.016;2022-09-23T03:09:34;10.68;;;4.72;;
58756;SDS011;44527;47.460;19.016;2022-09-23T03:13:00;8.02;;;4.00;;
58756;SDS011;44527;47.460;19.016;2022-09-23T03:20:11;8.90;;;4.25;;
58756;SDS011;44527;47.460;19.016;2022-09-23T03:23:26;10.48;;;3.90;;
58756;SDS011;44527;47.460;19.016;2022-09-23T03:26:35;6.75;;;3.67;;
58756;SDS011;44527;47.460;19.016;2022-09-23T03:29:42;8.75;;;4.35;;
58756;SDS011;44527;47.460;19.016;2022-09-23T03:32:48;7.25;;;3.92;;
58756;SDS011;44527;47.460;19.016;2022-09-23T03:36:03;8.73;;;4.12;;
58756;SDS011;44527;47.460;19.016;2022-09-23T03:39:29;5.78;;;3.97;;
58756;SDS011;44527;47.460;19.016;2022-09-23T03:42:32;6.85;;;4.53;;
58756;SDS011;44527;47.460;19.016;2022-09-23T03:45:36;6.90;;;3.72;;
58756;SDS011;44527;47.460;19.016;2022-09-23T03:48:39;9.10;;;3.62;;
58756;SDS011;44527;47.460;19.016;2022-09-23T03:51:41;6.87;;;3.80;;
58756;SDS011;44527;47.460;19.016;2022-09-23T03:54:46;8.23;;;4.03;;
58756;SDS011;44527;47.460;19.016;2022-09-23T03:57:48;8.30;;;4.87;;
58756;SDS011;44527;47.460;19.016;2022-09-23T04:00:51;8.10;;;4.05;;
58756;SDS011;44527;47.460;19.016;2022-09-23T04:03:56;10.38;;;4.40;;
58756;SDS011;44527;47.460;19.016;2022-09-23T04:06:59;9.00;;;4.10;;
58756;SDS011;44527;47.460;19.016;2022-09-23T04:10:02;7.90;;;4.30;;
58756;SDS011;44527;47.460;19.016;2022-09-23T04:13:05;7.57;;;4.22;;
58756;SDS011;44527;47.460;19.016;2022-09-23T04:16:08;7.57;;;4.75;;
58756;SDS011;44527;47.460;19.016;2022-09-23T04:19:10;11.07;;;4.62;;
58756;SDS011;44527;47.460;19.016;2022-09-23T04:22:14;9.18;;;4.70;;
58756;SDS011;44527;47.460;19.016;2022-09-23T04:25:16;8.27;;;4.07;;
58756;SDS011;44527;47.460;19.016;2022-09-23T04:28:19;15.82;;;4.50;;
58756;SDS011;44527;47.460;19.016;2022-09-23T04:31:22;11.90;;;4.50;;
58756;SDS011;44527;47.460;19.016;2022-09-23T04:34:25;11.30;;;4.25;;
58756;SDS011;44527;47.460;19.016;2022-09-23T04:37:27;10.77;;;4.05;;
58756;SDS011;44527;47.460;19.016;2022-09-23T04:40:30;8.23;;;4.07;;
58756;SDS011;44527;47.460;19.016;2022-09-23T04:43:33;10.60;;;4.35;;
58756;SDS011;44527;47.460;19.016;2022-09-23T04:46:37;11.48;;;3.95;;
58756;SDS011;44527;47.460;19.016;2022-09-23T04:49:40;10.15;;;4.37;;
58756;SDS011;44527;47.460;19.016;2022-09-23T04:52:43;8.38;;;4.65;;
58756;SDS011;44527;47.460;19.016;2022-09-23T04:55:45;9.77;;;4.95;;
58756;SDS011;44527;47.460;19.016;2022-09-23T04:58:48;10.27;;;4.55;;
58756;SDS011;44527;47.460;19.016;2022-09-23T05:01:51;15.52;;;6.03;;
58756;SDS011;44527;47.460;19.016;2022-09-23T05:04:55;14.45;;;4.90;;
58756;SDS011;44527;47.460;19.016;2022-09-23T05:07:59;9.20;;;5.12;;
58756;SDS011;44527;47.460;19.016;2022-09-23T05:11:03;11.35;;;5.57;;
58756;SDS011;44527;47.460;19.016;2022-09-23T05:14:09;14.13;;;5.40;;
58756;SDS011;44527;47.460;19.016;2022-09-23T05:17:12;11.10;;;4.62;;
58756;SDS011;44527;47.460;19.016;2022-09-23T05:20:15;49.22;;;6.85;;
58756;SDS011;44527;47.460;19.016;2022-09-23T05:23:18;11.12;;;5.40;;
58756;SDS011;44527;47.460;19.016;2022-09-23T05:26:21;15.52;;;6.28;;
58756;SDS011;44527;47.460;19.016;2022-09-23T05:29:26;12.50;;;5.62;;
58756;SDS011;44527;47.460;19.016;2022-09-23T05:32:29;9.80;;;5.25;;
58756;SDS011;44527;47.460;19.016;2022-09-23T05:35:32;15.35;;;5.50;;
58756;SDS011;44527;47.460;19.016;2022-09-23T05:38:35;13.25;;;5.43;;
58756;SDS011;44527;47.460;19.016;2022-09-23T05:41:37;16.08;;;5.07;;
58756;SDS011;44527;47.460;19.016;2022-09-23T05:44:41;14.45;;;5.72;;
58756;SDS011;44527;47.460;19.016;2022-09-23T05:47:43;15.65;;;6.07;;
58756;SDS011;44527;47.460;19.016;2022-09-23T05:50:52;14.82;;;6.12;;
58756;SDS011;44527;47.460;19.016;2022-09-23T05:53:54;12.37;;;6.62;;
58756;SDS011;44527;47.460;19.016;2022-09-23T05:56:59;12.60;;;5.57;;
58756;SDS011;44527;47.460;19.016;2022-09-23T06:00:06;9.27;;;5.55;;
58756;SDS011;44527;47.460;19.016;2022-09-23T06:03:12;12.95;;;6.32;;
58756;SDS011;44527;47.460;19.016;2022-09-23T06:06:17;13.45;;;6.03;;
58756;SDS011;44527;47.460;19.016;2022-09-23T06:09:21;9.52;;;5.32;;
58756;SDS011;44527;47.460;19.016;2022-09-23T06:12:24;17.17;;;5.40;;
58756;SDS011;44527;47.460;19.016;2022-09-23T06:15:26;18.87;;;7.03;;
58756;SDS011;44527;47.460;19.016;2022-09-23T06:18:28;18.75;;;6.40;;
58756;SDS011;44527;47.460;19.016;2022-09-23T06:21:32;13.30;;;5.75;;
58756;SDS011;44527;47.460;19.016;2022-09-23T06:24:36;12.85;;;5.97;;
58756;SDS011;44527;47.460;19.016;2022-09-23T06:27:38;16.52;;;5.70;;
58756;SDS011;44527;47.460;19.016;2022-09-23T06:30:41;13.45;;;5.70;;
58756;SDS011;44527;47.460;19.016;2022-09-23T06:33:44;10.43;;;4.97;;
58756;SDS011;44527;47.460;19.016;2022-09-23T06:36:47;7.65;;;4.90;;
58756;SDS011;44527;47.460;19.016;2022-09-23T06:39:49;11.12;;;5.80;;
58756;SDS011;44527;47.460;19.016;2022-09-23T06:42:57;11.40;;;5.07;;
58756;SDS011;44527;47.460;19.016;2022-09-23T06:46:01;9.43;;;5.00;;
58756;SDS011;44527;47.460;19.016;2022-09-23T06:49:05;9.88;;;4.90;;
58756;SDS011;44527;47.460;19.016;2022-09-23T06:52:08;7.28;;;4.75;;
58756;SDS011;44527;47.460;19.016;2022-09-23T06:55:10;8.45;;;5.85;;
58756;SDS011;44527;47.460;19.016;2022-09-23T06:58:12;13.07;;;5.20;;
58756;SDS011;44527;47.460;19.016;2022-09-23T07:01:15;9.30;;;5.60;;
58756;SDS011;44527;47.460;19.016;2022-09-23T07:04:18;8.48;;;5.32;;
58756;SDS011;44527;47.460;19.016;2022-09-23T07:07:20;15.10;;;5.25;;
58756;SDS011;44527;47.460;19.016;2022-09-23T07:10:23;17.52;;;5.12;;
58756;SDS011;44527;47.460;19.016;2022-09-23T07:13:26;13.75;;;5.53;;
58756;SDS011;44527;47.460;19.016;2022-09-23T07:16:32;7.82;;;4.85;;
58756;SDS011;44527;47.460;19.016;2022-09-23T07:19:35;14.65;;;5.20;;
58756;SDS011;44527;47.460;19.016;2022-09-23T07:22:37;9.25;;;4.78;;
58756;SDS011;44527;47.460;19.016;2022-09-23T07:25:40;12.60;;;4.93;;
58756;SDS011;44527;47.460;19.016;2022-09-23T07:28:44;22.70;;;5.35;;
58756;SDS011;44527;47.460;19.016;2022-09-23T07:31:48;11.88;;;4.68;;
58756;SDS011;44527;47.460;19.016;2022-09-23T07:34:50;70.90;;;10.02;;
58756;SDS011;44527;47.460;19.016;2022-09-23T07:37:54;8.40;;;3.92;;
58756;SDS011;44527;47.460;19.016;2022-09-23T07:41:03;10.50;;;4.50;;
58756;SDS011;44527;47.460;19.016;2022-09-23T07:44:10;8.93;;;3.83;;
58756;SDS011;44527;47.460;19.016;2022-09-23T07:47:12;8.65;;;3.53;;
58756;SDS011;44527;47.460;19.016;2022-09-23T07:50:15;17.75;;;4.07;;
58756;SDS011;44527;47.460;19.016;2022-09-23T07:53:20;60.60;;;8.20;;
58756;SDS011;44527;47.460;19.016;2022-09-23T07:56:27;11.10;;;4.15;;
58756;SDS011;44527;47.460;19.016;2022-09-23T07:59:30;25.50;;;5.28;;
58756;SDS011;44527;47.460;19.016;2022-09-23T08:02:33;11.32;;;3.80;;
58756;SDS011;44527;47.460;19.016;2022-09-23T08:05:36;7.18;;;4.28;;
58756;SDS011;44527;47.460;19.016;2022-09-23T08:08:40;9.88;;;4.12;;
58756;SDS011;44527;47.460;19.016;2022-09-23T08:11:46;6.25;;;3.45;;
58756;SDS011;44527;47.460;19.016;2022-09-23T08:14:48;8.77;;;3.90;;
58756;SDS011;44527;47.460;19.016;2022-09-23T08:17:51;6.18;;;3.53;;
58756;SDS011;44527;47.460;19.016;2022-09-23T08:20:53;7.55;;;3.85;;
58756;SDS011;44527;47.460;19.016;2022-09-23T08:23:56;7.28;;;4.10;;
58756;SDS011;44527;47.460;19.016;2022-09-23T08:26:58;10.68;;;4.30;;
58756;SDS011;44527;47.460;19.016;2022-09-23T08:30:00;7.12;;;4.43;;
58756;SDS011;44527;47.460;19.016;2022-09-23T08:33:03;7.07;;;4.37;;
58756;SDS011;44527;47.460;19.016;2022-09-23T08:36:06;6.25;;;4.37;;
58756;SDS011;44527;47.460;19.016;2022-09-23T08:39:08;8.95;;;4.97;;
58756;SDS011;44527;47.460;19.016;2022-09-23T08:42:18;6.53;;;4.15;;
58756;SDS011;44527;47.460;19.016;2022-09-23T08:45:28;10.40;;;5.20;;
58756;SDS011;44527;47.460;19.016;2022-09-23T08:48:32;11.68;;;5.25;;
58756;SDS011;44527;47.460;19.016;2022-09-23T08:51:38;8.93;;;5.37;;
58756;SDS011;44527;47.460;19.016;2022-09-23T08:54:47;10.63;;;5.55;;
58756;SDS011;44527;47.460;19.016;2022-09-23T09:01:38;12.00;;;5.87;;
58756;SDS011;44527;47.460;19.016;2022-09-23T09:04:53;8.30;;;5.25;;
58756;SDS011;44527;47.460;19.016;2022-09-23T09:08:00;14.33;;;5.63;;
58756;SDS011;44527;47.460;19.016;2022-09-23T09:11:04;16.33;;;5.45;;
58756;SDS011;44527;47.460;19.016;2022-09-23T09:17:22;18.05;;;6.32;;
58756;SDS011;44527;47.460;19.016;2022-09-23T09:20:40;11.80;;;5.53;;
58756;SDS011;44527;47.460;19.016;2022-09-23T09:24:00;11.23;;;5.05;;
58756;SDS011;44527;47.460;19.016;2022-09-23T09:27:11;9.75;;;5.03;;
58756;SDS011;44527;47.460;19.016;2022-09-23T09:30:15;15.45;;;5.03;;
58756;SDS011;44527;47.460;19.016;2022-09-23T09:33:19;8.45;;;5.07;;
58756;SDS011;44527;47.460;19.016;2022-09-23T09:36:36;9.27;;;5.07;;
58756;SDS011;44527;47.460;19.016;2022-09-23T09:39:45;6.30;;;4.37;;
58756;SDS011;44527;47.460;19.016;2022-09-23T09:42:48;9.93;;;4.18;;
58756;SDS011;44527;47.460;19.016;2022-09-23T09:45:55;7.55;;;5.22;;
58756;SDS011;44527;47.460;19.016;2022-09-23T09:52:25;15.45;;;4.12;;
58756;SDS011;44527;47.460;19.016;2022-09-23T09:55:30;7.97;;;4.45;;
58756;SDS011;44527;47.460;19.016;2022-09-23T09:58:54;8.15;;;4.47;;
58756;SDS011;44527;47.460;19.016;2022-09-23T10:08:32;6.82;;;4.40;;
58756;SDS011;44527;47.460;19.016;2022-09-23T10:11:36;8.82;;;4.35;;
58756;SDS011;44527;47.460;19.016;2022-09-23T10:14:40;7.87;;;4.82;;
58756;SDS011;44527;47.460;19.016;2022-09-23T10:17:44;8.60;;;5.20;;
58756;SDS011;44527;47.460;19.016;2022-09-23T10:20:51;7.70;;;5.32;;
58756;SDS011;44527;47.460;19.016;2022-09-23T10:23:55;7.03;;;4.32;;
58756;SDS011;44527;47.460;19.016;2022-09-23T10:27:06;10.50;;;4.47;;
58756;SDS011;44527;47.460;19.016;2022-09-23T10:30:20;10.63;;;4.85;;
58756;SDS011;44527;47.460;19.016;2022-09-23T10:33:25;7.12;;;4.25;;
58756;SDS011;44527;47.460;19.016;2022-09-23T10:36:30;6.62;;;3.95;;
58756;SDS011;44527;47.460;19.016;2022-09-23T10:39:34;7.12;;;4.62;;
58756;SDS011;44527;47.460;19.016;2022-09-23T10:42:58;6.82;;;4.75;;
58756;SDS011;44527;47.460;19.016;2022-09-23T10:49:46;9.00;;;3.75;;
58756;SDS011;44527;47.460;19.016;2022-09-23T11:06:40;10.40;;;4.05;;
58756;SDS011;44527;47.460;19.016;2022-09-23T11:26:48;6.85;;;4.03;;
58756;SDS011;44527;47.460;19.016;2022-09-23T11:37:18;6.90;;;3.47;;
58756;SDS011;44527;47.460;19.016;2022-09-23T11:40:31;5.87;;;4.03;;
58756;SDS011;44527;47.460;19.016;2022-09-23T11:43:37;7.40;;;3.83;;
58756;SDS011;44527;47.460;19.016;2022-09-23T11:47:03;5.40;;;3.78;;
58756;SDS011;44527;47.460;19.016;2022-09-23T11:50:27;12.43;;;4.22;;
58756;SDS011;44527;47.460;19.016;2022-09-23T11:53:45;5.93;;;3.45;;
58756;SDS011;44527;47.460;19.016;2022-09-23T11:56:52;4.78;;;3.17;;
58756;SDS011;44527;47.460;19.016;2022-09-23T12:00:02;7.15;;;3.65;;
58756;SDS011;44527;47.460;19.016;2022-09-23T12:03:15;6.07;;;3.50;;
58756;SDS011;44527;47.460;19.016;2022-09-23T12:06:35;6.35;;;3.65;;
58756;SDS011;44527;47.460;19.016;2022-09-23T12:09:55;5.03;;;3.45;;
58756;SDS011;44527;47.460;19.016;2022-09-23T12:13:06;6.95;;;3.42;;
58756;SDS011;44527;47.460;19.016;2022-09-23T12:20:06;6.62;;;3.95;;
58756;SDS011;44527;47.460;19.016;2022-09-23T12:26:50;5.68;;;3.55;;
58756;SDS011;44527;47.460;19.016;2022-09-23T12:29:59;9.43;;;3.92;;
58756;SDS011;44527;47.460;19.016;2022-09-23T12:33:05;5.03;;;3.22;;
58756;SDS011;44527;47.460;19.016;2022-09-23T12:36:10;5.60;;;3.20;;
58756;SDS011;44527;47.460;19.016;2022-09-23T12:42:50;3.35;;;2.37;;
58756;SDS011;44527;47.460;19.016;2022-09-23T12:45:53;5.25;;;2.67;;
58756;SDS011;44527;47.460;19.016;2022-09-23T12:48:59;4.45;;;2.25;;
58756;SDS011;44527;47.460;19.016;2022-09-23T13:01:43;3.42;;;2.05;;
58756;SDS011;44527;47.460;19.016;2022-09-23T13:04:52;4.72;;;2.60;;
58756;SDS011;44527;47.460;19.016;2022-09-23T13:08:17;2.75;;;1.95;;
58756;SDS011;44527;47.460;19.016;2022-09-23T13:11:22;4.00;;;2.60;;
58756;SDS011;44527;47.460;19.016;2022-09-23T13:14:28;3.53;;;2.30;;
58756;SDS011;44527;47.460;19.016;2022-09-23T13:17:37;5.28;;;2.55;;
58756;SDS011;44527;47.460;19.016;2022-09-23T13:20:41;9.30;;;2.22;;
58756;SDS011;44527;47.460;19.016;2022-09-23T13:24:09;4.97;;;2.25;;
58756;SDS011;44527;47.460;19.016;2022-09-23T13:27:30;5.80;;;2.72;;
58756;SDS011;44527;47.460;19.016;2022-09-23T13:30:34;3.03;;;2.20;;
58756;SDS011;44527;47.460;19.016;2022-09-23T13:33:38;5.07;;;2.20;;
58756;SDS011;44527;47.460;19.016;2022-09-23T13:36:45;3.30;;;2.10;;
58756;SDS011;44527;47.460;19.016;2022-09-23T13:39:49;3.30;;;2.40;;
58756;SDS011;44527;47.460;19.016;2022-09-23T13:45:59;6.87;;;2.37;;
58756;SDS011;44527;47.460;19.016;2022-09-23T13:49:02;4.20;;;2.55;;
58756;SDS011;44527;47.460;19.016;2022-09-23T13:52:05;7.00;;;2.60;;
58756;SDS011;44527;47.460;19.016;2022-09-23T13:55:31;2.95;;;1.95;;
58756;SDS011;44527;47.460;19.016;2022-09-23T13:58:38;4.35;;;2.20;;
58756;SDS011;44527;47.460;19.016;2022-09-23T14:01:41;5.05;;;2.40;;
58756;SDS011;44527;47.460;19.016;2022-09-23T14:04:43;10.52;;;2.83;;
58756;SDS011;44527;47.460;19.016;2022-09-23T14:07:46;7.03;;;2.60;;
58756;SDS011;44527;47.460;19.016;2022-09-23T14:10:49;4.22;;;2.37;;
58756;SDS011;44527;47.460;19.016;2022-09-23T14:13:52;3.17;;;2.22;;
58756;SDS011;44527;47.460;19.016;2022-09-23T14:16:56;3.53;;;2.15;;
58756;SDS011;44527;47.460;19.016;2022-09-23T14:19:59;5.12;;;2.62;;
58756;SDS011;44527;47.460;19.016;2022-09-23T14:23:03;4.10;;;2.50;;
58756;SDS011;44527;47.460;19.016;2022-09-23T14:26:06;3.55;;;2.62;;
58756;SDS011;44527;47.460;19.016;2022-09-23T14:29:11;4.72;;;2.67;;
58756;SDS011;44527;47.460;19.016;2022-09-23T14:32:19;2.12;;;1.75;;
58756;SDS011;44527;47.460;19.016;2022-09-23T14:35:26;5.07;;;2.25;;
58756;SDS011;44527;47.460;19.016;2022-09-23T14:38:41;3.53;;;2.30;;
58756;SDS011;44527;47.460;19.016;2022-09-23T14:41:52;5.05;;;2.50;;
58756;SDS011;44527;47.460;19.016;2022-09-23T14:44:54;3.72;;;2.30;;
58756;SDS011;44527;47.460;19.016;2022-09-23T14:47:57;5.35;;;1.90;;
58756;SDS011;44527;47.460;19.016;2022-09-23T14:51:03;3.92;;;2.30;;
58756;SDS011;44527;47.460;19.016;2022-09-23T14:57:37;3.30;;;2.08;;
58756;SDS011;44527;47.460;19.016;2022-09-23T15:00:53;3.83;;;2.28;;
58756;SDS011;44527;47.460;19.016;2022-09-23T15:03:58;2.22;;;1.70;;
58756;SDS011;44527;47.460;19.016;2022-09-23T15:07:14;2.30;;;1.60;;
58756;SDS011;44527;47.460;19.016;2022-09-23T15:13:29;2.75;;;1.40;;
58756;SDS011;44527;47.460;19.016;2022-09-23T15:16:33;1.87;;;1.30;;
58756;SDS011;44527;47.460;19.016;2022-09-23T15:19:35;3.12;;;1.50;;
58756;SDS011;44527;47.460;19.016;2022-09-23T15:22:45;2.80;;;1.80;;
58756;SDS011;44527;47.460;19.016;2022-09-23T15:25:49;2.60;;;1.73;;
58756;SDS011;44527;47.460;19.016;2022-09-23T15:28:52;2.03;;;1.20;;
58756;SDS011;44527;47.460;19.016;2022-09-23T15:31:59;3.10;;;2.00;;
58756;SDS011;44527;47.460;19.016;2022-09-23T15:35:01;2.87;;;2.00;;
58756;SDS011;44527;47.460;19.016;2022-09-23T15:38:04;4.62;;;1.92;;
58756;SDS011;44527;47.460;19.016;2022-09-23T15:41:06;4.15;;;2.67;;
58756;SDS011;44527;47.460;19.016;2022-09-23T15:44:12;3.35;;;2.28;;
58756;SDS011;44527;47.460;19.016;2022-09-23T15:47:15;3.72;;;2.33;;
58756;SDS011;44527;47.460;19.016;2022-09-23T15:50:19;7.93;;;2.40;;
58756;SDS011;44527;47.460;19.016;2022-09-23T15:53:25;5.15;;;2.08;;
58756;SDS011;44527;47.460;19.016;2022-09-23T15:56:28;7.07;;;2.40;;
58756;SDS011;44527;47.460;19.016;2022-09-23T15:59:30;5.72;;;2.25;;
58756;SDS011;44527;47.460;19.016;2022-09-23T16:02:33;7.90;;;2.80;;
58756;SDS011;44527;47.460;19.016;2022-09-23T16:05:36;4.35;;;2.80;;
58756;SDS011;44527;47.460;19.016;2022-09-23T16:08:40;5.18;;;2.97;;
58756;SDS011;44527;47.460;19.016;2022-09-23T16:11:44;5.32;;;2.60;;
58756;SDS011;44527;47.460;19.016;2022-09-23T16:14:47;4.97;;;2.50;;
58756;SDS011;44527;47.460;19.016;2022-09-23T16:17:50;6.15;;;2.62;;
58756;SDS011;44527;47.460;19.016;2022-09-23T16:20:52;7.95;;;2.90;;
58756;SDS011;44527;47.460;19.016;2022-09-23T16:23:55;5.35;;;2.95;;
58756;SDS011;44527;47.460;19.016;2022-09-23T16:26:58;4.28;;;2.60;;
58756;SDS011;44527;47.460;19.016;2022-09-23T16:30:05;15.00;;;3.28;;
58756;SDS011;44527;47.460;19.016;2022-09-23T16:33:08;9.52;;;3.05;;
58756;SDS011;44527;47.460;19.016;2022-09-23T16:39:37;6.87;;;3.12;;
58756;SDS011;44527;47.460;19.016;2022-09-23T16:42:39;9.40;;;4.10;;
58756;SDS011;44527;47.460;19.016;2022-09-23T16:45:41;9.43;;;3.53;;
58756;SDS011;44527;47.460;19.016;2022-09-23T16:48:44;8.65;;;3.70;;
58756;SDS011;44527;47.460;19.016;2022-09-23T16:51:53;7.43;;;4.50;;
58756;SDS011;44527;47.460;19.016;2022-09-23T16:54:55;11.18;;;4.40;;
58756;SDS011;44527;47.460;19.016;2022-09-23T16:57:58;6.93;;;3.67;;
58756;SDS011;44527;47.460;19.016;2022-09-23T17:01:00;9.65;;;3.80;;
58756;SDS011;44527;47.460;19.016;2022-09-23T17:04:21;9.85;;;4.12;;
58756;SDS011;44527;47.460;19.016;2022-09-23T17:07:23;6.53;;;3.65;;
58756;SDS011;44527;47.460;19.016;2022-09-23T17:10:26;7.47;;;4.15;;
58756;SDS011;44527;47.460;19.016;2022-09-23T17:13:29;6.93;;;3.87;;
58756;SDS011;44527;47.460;19.016;2022-09-23T17:16:32;10.45;;;4.22;;
58756;SDS011;44527;47.460;19.016;2022-09-23T17:19:36;11.65;;;4.20;;
58756;SDS011;44527;47.460;19.016;2022-09-23T17:22:39;9.88;;;4.12;;
58756;SDS011;44527;47.460;19.016;2022-09-23T17:25:46;6.62;;;3.75;;
58756;SDS011;44527;47.460;19.016;2022-09-23T17:28:49;10.52;;;5.12;;
58756;SDS011;44527;47.460;19.016;2022-09-23T17:31:52;10.85;;;4.97;;
58756;SDS011;44527;47.460;19.016;2022-09-23T17:34:55;9.93;;;5.05;;
58756;SDS011;44527;47.460;19.016;2022-09-23T17:37:57;10.07;;;4.70;;
58756;SDS011;44527;47.460;19.016;2022-09-23T17:40:59;10.68;;;4.18;;
58756;SDS011;44527;47.460;19.016;2022-09-23T17:44:03;11.45;;;5.05;;
58756;SDS011;44527;47.460;19.016;2022-09-23T17:47:05;5.93;;;3.53;;
58756;SDS011;44527;47.460;19.016;2022-09-23T17:50:07;6.47;;;4.18;;
58756;SDS011;44527;47.460;19.016;2022-09-23T17:53:10;8.85;;;4.10;;
58756;SDS011;44527;47.460;19.016;2022-09-23T17:56:13;10.68;;;4.05;;
58756;SDS011;44527;47.460;19.016;2022-09-23T17:59:20;8.15;;;4.55;;
58756;SDS011;44527;47.460;19.016;2022-09-23T18:02:22;11.90;;;4.50;;
58756;SDS011;44527;47.460;19.016;2022-09-23T18:05:24;7.65;;;4.57;;
58756;SDS011;44527;47.460;19.016;2022-09-23T18:08:28;8.27;;;5.72;;
58756;SDS011;44527;47.460;19.016;2022-09-23T18:11:33;9.10;;;4.72;;
58756;SDS011;44527;47.460;19.016;2022-09-23T18:14:36;12.52;;;5.97;;
58756;SDS011;44527;47.460;19.016;2022-09-23T18:17:39;7.90;;;5.18;;
58756;SDS011;44527;47.460;19.016;2022-09-23T18:20:41;10.10;;;5.47;;
58756;SDS011;44527;47.460;19.016;2022-09-23T18:23:43;19.77;;;6.57;;
58756;SDS011;44527;47.460;19.016;2022-09-23T18:26:46;20.92;;;9.20;;
58756;SDS011;44527;47.460;19.016;2022-09-23T18:29:48;19.75;;;10.73;;
58756;SDS011;44527;47.460;19.016;2022-09-23T18:32:50;17.65;;;9.55;;
58756;SDS011;44527;47.460;19.016;2022-09-23T18:35:53;31.30;;;10.43;;
58756;SDS011;44527;47.460;19.016;2022-09-23T18:38:55;26.15;;;10.63;;
58756;SDS011;44527;47.460;19.016;2022-09-23T18:41:58;30.98;;;11.07;;
58756;SDS011;44527;47.460;19.016;2022-09-23T18:45:00;26.52;;;10.32;;
58756;SDS011;44527;47.460;19.016;2022-09-23T18:48:03;25.33;;;10.43;;
58756;SDS011;44527;47.460;19.016;2022-09-23T18:51:24;21.62;;;10.13;;
58756;SDS011;44527;47.460;19.016;2022-09-23T18:54:29;33.13;;;10.40;;
58756;SDS011;44527;47.460;19.016;2022-09-23T18:57:32;23.20;;;10.07;;
58756;SDS011;44527;47.460;19.016;2022-09-23T19:00:34;25.55;;;10.30;;
58756;SDS011;44527;47.460;19.016;2022-09-23T19:03:37;24.50;;;9.98;;
58756;SDS011;44527;47.460;19.016;2022-09-23T19:06:39;19.35;;;10.50;;
58756;SDS011;44527;47.460;19.016;2022-09-23T19:09:42;24.40;;;10.95;;
58756;SDS011;44527;47.460;19.016;2022-09-23T19:12:44;23.65;;;10.77;;
58756;SDS011;44527;47.460;19.016;2022-09-23T19:15:47;23.58;;;11.55;;
58756;SDS011;44527;47.460;19.016;2022-09-23T19:18:50;21.75;;;10.50;;
58756;SDS011;44527;47.460;19.016;2022-09-23T19:21:52;20.83;;;10.93;;
58756;SDS011;44527;47.460;19.016;2022-09-23T19:24:55;19.80;;;9.77;;
58756;SDS011;44527;47.460;19.016;2022-09-23T19:27:57;19.23;;;10.85;;
58756;SDS011;44527;47.460;19.016;2022-09-23T19:31:09;27.65;;;12.98;;
58756;SDS011;44527;47.460;19.016;2022-09-23T19:34:18;23.10;;;10.32;;
58756;SDS011;44527;47.460;19.016;2022-09-23T19:37:24;26.10;;;11.15;;
58756;SDS011;44527;47.460;19.016;2022-09-23T19:40:27;25.37;;;9.73;;
58756;SDS011;44527;47.460;19.016;2022-09-23T19:43:32;24.85;;;11.52;;
58756;SDS011;44527;47.460;19.016;2022-09-23T19:46:41;25.02;;;10.45;;
58756;SDS011;44527;47.460;19.016;2022-09-23T19:49:46;23.48;;;9.77;;
58756;SDS011;44527;47.460;19.016;2022-09-23T19:52:49;28.12;;;11.05;;
58756;SDS011;44527;47.460;19.016;2022-09-23T19:55:52;21.27;;;10.02;;
58756;SDS011;44527;47.460;19.016;2022-09-23T19:58:57;24.25;;;10.05;;
58756;SDS011;44527;47.460;19.016;2022-09-23T20:02:00;26.02;;;9.90;;
58756;SDS011;44527;47.460;19.016;2022-09-23T20:05:03;18.40;;;9.60;;
58756;SDS011;44527;47.460;19.016;2022-09-23T20:08:05;18.73;;;9.60;;
58756;SDS011;44527;47.460;19.016;2022-09-23T20:11:08;20.55;;;9.35;;
58756;SDS011;44527;47.460;19.016;2022-09-23T20:14:13;21.17;;;8.90;;
58756;SDS011;44527;47.460;19.016;2022-09-23T20:17:16;17.98;;;10.30;;
58756;SDS011;44527;47.460;19.016;2022-09-23T20:20:19;25.30;;;10.10;;